createdAt,value
2023-05-25T00:02:29.186Z,101835.88
2023-05-25T00:07:31.104Z,101856.94
2023-05-25T00:12:34.881Z,101849.84
2023-05-25T00:17:37.043Z,101850.69
2023-05-25T00:22:39.446Z,101850.59
2023-05-25T00:27:42.826Z,101851.19
2023-05-25T00:32:45.248Z,101850.16
2023-05-25T00:37:47.358Z,101852.78
2023-05-25T00:42:51.169Z,101844.63
2023-05-25T00:47:53.669Z,101847.16
2023-05-25T00:52:55.867Z,101851.53
2023-05-25T00:58:04.048Z,101849.56
2023-05-25T01:03:11.739Z,101845.31
2023-05-25T01:08:14.615Z,101839.03
2023-05-25T01:13:20.204Z,101838.88
2023-05-25T01:18:22.014Z,101845.81
2023-05-25T01:23:31.558Z,101853.09
2023-05-25T01:28:38.662Z,101858.41
2023-05-25T01:33:42.904Z,101851.38
2023-05-25T01:38:46.753Z,101845.84
2023-05-25T01:43:49.291Z,101855.31
2023-05-25T01:49:02.298Z,101861.41
2023-05-25T01:54:11.375Z,101860.50
2023-05-25T01:59:15.326Z,101852.19
2023-05-25T02:04:17.834Z,101853.16
2023-05-25T02:09:21.467Z,101846.16
2023-05-25T02:14:23.891Z,101843.22
2023-05-25T02:19:26.061Z,101835.13
2023-05-25T02:24:29.562Z,101837.53
2023-05-25T02:29:32.079Z,101841.03
2023-05-25T02:34:34.055Z,101837.53
2023-05-25T02:39:37.483Z,101846.03
2023-05-25T02:44:39.548Z,101845.81
2023-05-25T02:49:41.687Z,101841.38
2023-05-25T02:54:44.796Z,101852.72
2023-05-25T02:59:46.954Z,101845.84
2023-05-25T03:04:49.059Z,101843.97
2023-05-25T03:09:52.752Z,101848.00
2023-05-25T03:14:55.122Z,101850.97
2023-05-25T03:19:57.320Z,101861.63
2023-05-25T03:25:00.571Z,101855.06
2023-05-25T03:30:02.792Z,101869.69
2023-05-25T03:35:05.929Z,101868.00
2023-05-25T03:40:10.339Z,101861.13
2023-05-25T03:45:12.915Z,101867.69
2023-05-25T03:50:14.949Z,101868.75
2023-05-25T03:55:18.686Z,101872.53
2023-05-25T04:00:20.687Z,101880.84
2023-05-25T04:05:23.335Z,101882.84
2023-05-25T04:10:27.246Z,101892.03
2023-05-25T04:15:29.657Z,101892.56
2023-05-25T04:20:32.019Z,101897.72
2023-05-25T04:25:35.527Z,101889.56
2023-05-25T04:30:37.682Z,101891.22
2023-05-25T04:35:39.887Z,101896.63
2023-05-25T04:40:43.384Z,101908.16
2023-05-25T04:45:45.544Z,101923.88
2023-05-25T04:50:48.150Z,101920.72
2023-05-25T04:55:51.343Z,101923.75
2023-05-25T05:00:53.594Z,101922.44
2023-05-25T05:05:55.703Z,101912.47
2023-05-25T05:10:59.018Z,101911.69
2023-05-25T05:16:01.419Z,101913.38
2023-05-25T05:21:03.670Z,101906.88
2023-05-25T05:26:07.217Z,101913.69
2023-05-25T05:31:09.241Z,101918.97
2023-05-25T05:36:11.491Z,101936.78
2023-05-25T05:41:14.650Z,101922.53
2023-05-25T05:46:16.905Z,101936.38
2023-05-25T05:51:18.768Z,101934.09
2023-05-25T05:56:22.419Z,101937.47
2023-05-25T06:01:24.592Z,101948.13
2023-05-25T06:06:26.511Z,101942.66
2023-05-25T06:11:30.136Z,101952.59
2023-05-25T06:16:32.274Z,101954.88
2023-05-25T06:21:34.115Z,101960.00
2023-05-25T06:26:37.241Z,101968.38
2023-05-25T06:31:39.325Z,101973.22
2023-05-25T06:36:41.725Z,101975.97
2023-05-25T06:41:45.079Z,101977.84
2023-05-25T06:46:47.205Z,101984.59
2023-05-25T06:51:49.123Z,101971.75
2023-05-25T06:56:52.777Z,101978.00
2023-05-25T07:01:54.659Z,101981.50
2023-05-25T07:06:56.420Z,101975.69
2023-05-25T07:11:59.552Z,101972.75
2023-05-25T07:17:01.517Z,101978.69
2023-05-25T07:22:03.686Z,101983.53
2023-05-25T07:27:07.403Z,101974.66
2023-05-25T07:32:09.126Z,101982.72
2023-05-25T07:37:11.136Z,101990.41
2023-05-25T07:42:14.517Z,101984.63
2023-05-25T07:47:16.679Z,101982.41
2023-05-25T07:52:19.356Z,101984.66
2023-05-25T07:57:22.832Z,101997.28
2023-05-25T08:02:25.037Z,101995.44
2023-05-25T08:07:27.246Z,102001.16
2023-05-25T08:12:47.087Z,101997.69
2023-05-25T08:17:51.425Z,101995.00
2023-05-25T08:22:53.482Z,101995.78
2023-05-25T08:27:56.680Z,101999.19
2023-05-25T08:32:58.672Z,101995.16
2023-05-25T08:38:00.709Z,101984.47
2023-05-25T08:43:04.033Z,101996.31
2023-05-25T08:48:12.026Z,101987.34
2023-05-25T08:53:18.663Z,101990.00
2023-05-25T08:58:28.617Z,101991.66
2023-05-25T09:03:31.167Z,101998.91
2023-05-25T09:08:33.185Z,102007.97
2023-05-25T09:13:37.000Z,102010.22
2023-05-25T09:18:39.839Z,102008.06
2023-05-25T09:23:42.659Z,102015.69
2023-05-25T09:28:49.031Z,102007.22
2023-05-25T09:33:51.682Z,102008.84
2023-05-25T09:38:54.599Z,102016.31
2023-05-25T09:44:10.488Z,102015.56
2023-05-25T09:49:14.022Z,102032.06
2023-05-25T09:54:16.455Z,102030.34
2023-05-25T09:59:20.129Z,102029.56
2023-05-25T10:04:22.292Z,102024.78
2023-05-25T10:09:28.998Z,102027.22
2023-05-25T10:14:36.045Z,102029.38
2023-05-25T10:19:42.327Z,102026.22
2023-05-25T10:24:53.963Z,102028.78
2023-05-25T10:30:01.127Z,102034.53
2023-05-25T10:35:05.242Z,102026.19
2023-05-25T10:40:07.753Z,102038.44
2023-05-25T10:45:12.147Z,102024.88
2023-05-25T10:50:21.557Z,102026.72
2023-05-25T10:55:23.821Z,102019.88
2023-05-25T11:00:31.437Z,102017.16
2023-05-25T11:05:35.482Z,102028.53
2023-05-25T11:10:53.285Z,102016.38
2023-05-25T11:16:17.556Z,102018.06
2023-05-25T11:21:42.631Z,102013.06
2023-05-25T11:26:56.848Z,102017.13
2023-05-25T11:32:00.365Z,102016.38
2023-05-25T11:37:02.542Z,102020.00
2023-05-25T11:42:06.041Z,102023.88
2023-05-25T11:47:11.833Z,102014.94
2023-05-25T11:52:15.511Z,102007.59
2023-05-25T11:57:19.178Z,102015.34
2023-05-25T12:02:23.256Z,102004.31
2023-05-25T12:07:25.907Z,102003.81
2023-05-25T12:12:27.629Z,102013.13
2023-05-25T12:17:31.312Z,101999.53
2023-05-25T12:22:34.068Z,101999.66
2023-05-25T12:27:36.835Z,102016.38
2023-05-25T12:33:01.993Z,102008.31
2023-05-25T12:38:11.661Z,102010.50
2023-05-25T12:43:14.840Z,102007.25
2023-05-25T12:48:26.198Z,102004.91
2023-05-25T12:53:28.397Z,102004.34
2023-05-25T12:58:30.574Z,102008.53
2023-05-25T13:03:34.853Z,101998.69
2023-05-25T13:08:36.607Z,101996.53
2023-05-25T13:13:38.626Z,101988.63
2023-05-25T13:18:42.071Z,101983.56
2023-05-25T13:23:44.964Z,101979.47
2023-05-25T13:28:47.244Z,101978.50
2023-05-25T13:33:50.347Z,101993.81
2023-05-25T13:38:52.247Z,101981.47
2023-05-25T13:43:54.399Z,101976.38
2023-05-25T13:48:57.898Z,101979.50
2023-05-25T13:53:59.599Z,101980.16
2023-05-25T13:59:01.678Z,101972.97
2023-05-25T14:04:05.358Z,101976.91
2023-05-25T14:09:07.550Z,101969.91
2023-05-25T14:14:23.261Z,101963.44
2023-05-25T14:19:33.999Z,101974.16
2023-05-25T14:24:36.623Z,101968.78
2023-05-25T14:29:38.898Z,101967.53
2023-05-25T14:34:42.407Z,101957.22
2023-05-25T14:39:44.595Z,101963.59
2023-05-25T14:44:46.579Z,101954.97
2023-05-25T14:49:50.107Z,101960.28
2023-05-25T14:54:52.335Z,101958.94
2023-05-25T14:59:54.217Z,101955.19
2023-05-25T15:04:57.592Z,101952.75
2023-05-25T15:09:59.355Z,101944.75
2023-05-25T15:15:01.546Z,101952.72
2023-05-25T15:20:06.418Z,101950.22
2023-05-25T15:25:09.273Z,101943.47
2023-05-25T15:30:11.994Z,101938.38
2023-05-25T15:35:15.446Z,101937.06
2023-05-25T15:40:17.541Z,101936.38
2023-05-25T15:45:19.862Z,101939.72
2023-05-25T15:50:23.444Z,101946.44
2023-05-25T15:55:25.556Z,101938.50
2023-05-25T16:00:27.748Z,101938.19
2023-05-25T16:05:31.506Z,101941.78
2023-05-25T16:10:33.290Z,101927.72
2023-05-25T16:15:35.129Z,101913.66
2023-05-25T16:20:38.791Z,101935.22
2023-05-25T16:25:41.347Z,101928.16
2023-05-25T16:30:43.644Z,101916.31
2023-05-25T16:35:47.563Z,101922.31
2023-05-25T16:40:50.207Z,101920.66
2023-05-25T16:45:52.696Z,101917.03
2023-05-25T16:50:57.020Z,101921.66
2023-05-25T16:55:58.954Z,101915.00
2023-05-25T17:01:01.078Z,101916.03
2023-05-25T17:06:04.590Z,101910.00
2023-05-25T17:11:06.663Z,101912.00
2023-05-25T17:16:09.115Z,101911.50
2023-05-25T17:21:12.617Z,101918.91
2023-05-25T17:26:14.989Z,101922.91
2023-05-25T17:31:16.826Z,101923.06
2023-05-25T17:36:20.038Z,101926.31
2023-05-25T17:41:22.267Z,101922.25
2023-05-25T17:46:24.073Z,101921.13
2023-05-25T17:51:27.736Z,101919.63
2023-05-25T17:56:30.021Z,101928.53
2023-05-25T18:01:32.507Z,101930.91
2023-05-25T18:06:36.441Z,101940.13
2023-05-25T18:11:38.463Z,101937.25
2023-05-25T18:16:40.574Z,101930.13
2023-05-25T18:21:44.208Z,101929.31
2023-05-25T18:26:46.855Z,101931.38
2023-05-25T18:31:48.776Z,101942.34
2023-05-25T18:36:52.600Z,101938.16
2023-05-25T18:41:54.558Z,101934.38
2023-05-25T18:46:56.861Z,101934.91
2023-05-25T18:52:00.166Z,101933.84
2023-05-25T18:57:02.113Z,101934.38
2023-05-25T19:02:04.358Z,101941.06
2023-05-25T19:07:07.786Z,101940.38
2023-05-25T19:12:09.766Z,101943.34
2023-05-25T19:17:11.633Z,101943.47
2023-05-25T19:22:15.137Z,101956.31
2023-05-25T19:27:17.568Z,101968.28
2023-05-25T19:32:19.423Z,101967.53
2023-05-25T19:37:22.753Z,101962.50
2023-05-25T19:42:24.561Z,101961.84
2023-05-25T19:47:26.328Z,101964.31
2023-05-25T19:52:30.032Z,101967.28
2023-05-25T19:57:32.121Z,101966.50
2023-05-25T20:02:34.300Z,101970.16
2023-05-25T20:07:37.517Z,101972.13
2023-05-25T20:12:39.427Z,101968.78
2023-05-25T20:17:41.237Z,101983.91
2023-05-25T20:22:44.606Z,101984.81
2023-05-25T20:27:47.019Z,101986.81
2023-05-25T20:32:48.940Z,101986.09
2023-05-25T20:37:52.319Z,101987.91
2023-05-25T20:42:54.068Z,101995.94
2023-05-25T20:47:59.492Z,101989.72
2023-05-25T20:53:03.264Z,101992.44
2023-05-25T20:58:05.002Z,101995.13
2023-05-25T21:03:06.815Z,101995.09
2023-05-25T21:08:10.031Z,102002.19
2023-05-25T21:13:12.715Z,101996.00
2023-05-25T21:18:14.497Z,102004.88
2023-05-25T21:23:17.955Z,102005.75
2023-05-25T21:28:19.910Z,102000.44
2023-05-25T21:33:22.124Z,102004.81
2023-05-25T21:38:25.560Z,102004.72
2023-05-25T21:43:27.353Z,102008.28
2023-05-25T21:48:29.081Z,102011.78
2023-05-25T21:53:32.448Z,102010.03
2023-05-25T21:58:34.212Z,102010.03
2023-05-25T22:03:36.021Z,102011.81
2023-05-25T22:08:39.544Z,102016.41
2023-05-25T22:13:41.656Z,102025.28
2023-05-25T22:18:43.561Z,102027.91
2023-05-25T22:23:47.359Z,102027.94
2023-05-25T22:28:50.003Z,102029.69
2023-05-25T22:33:52.110Z,102035.88
2023-05-25T22:38:55.598Z,102043.78
2023-05-25T22:43:57.893Z,102054.31
2023-05-25T22:49:00.145Z,102057.78
2023-05-25T22:54:03.926Z,102054.19
2023-05-25T22:59:06.162Z,102053.28
2023-05-25T23:04:08.393Z,102054.06
2023-05-25T23:09:12.085Z,102051.50
2023-05-25T23:14:14.246Z,102052.56
2023-05-25T23:19:16.462Z,102050.00
2023-05-25T23:24:19.961Z,102042.00
2023-05-25T23:29:22.711Z,102046.41
2023-05-25T23:34:25.585Z,102049.81
2023-05-25T23:39:29.151Z,102048.91
2023-05-25T23:44:31.512Z,102055.97
2023-05-25T23:49:33.653Z,102058.66
2023-05-25T23:54:37.486Z,102055.13
2023-05-25T23:59:39.637Z,102052.44
